Time;durP1;ratioP1;P1;durP2;ratioP2;P2;SDS_P1;SDS_P2;PMS_P1;PMS_P2;Temp;Humidity;BMP_temperature;BMP_pressure;BME280_temperature;BME280_humidity;BME280_pressure;Samples;Min_cycle;Max_cycle;Signal;HPM_P1;HPM_P2
2024/03/31 00:01:05;;;;;;;1.65;1.23;;;;;;;22.08;39.71;100130.84;5043721;28;20043;-72
2024/03/31 00:03:31;;;;;;;1.27;1.15;;;;;;;22.08;39.74;100128.19;4949935;28;20051;-73
2024/03/31 00:05:57;;;;;;;1.45;1.02;;;;;;;22.11;39.70;100133.91;4959836;28;20035;-73
2024/03/31 00:08:22;;;;;;;1.50;1.10;;;;;;;22.05;39.82;100136.56;4951561;28;20375;-73
2024/03/31 00:10:48;;;;;;;2.03;1.15;;;;;;;22.05;40.09;100140.03;4939864;28;20853;-72
2024/03/31 00:13:13;;;;;;;1.52;1.13;;;;;;;22.05;39.85;100141.88;4948610;28;20031;-71
2024/03/31 00:15:38;;;;;;;2.20;1.13;;;;;;;22.05;39.82;100136.56;4952884;28;20038;-73
2024/03/31 00:18:04;;;;;;;1.08;0.98;;;;;;;22.05;40.09;100123.31;4960058;28;20105;-73
2024/03/31 00:20:30;;;;;;;1.40;1.13;;;;;;;22.05;39.51;100125.97;4952741;28;20057;-73
2024/03/31 00:22:55;;;;;;;2.88;1.30;;;;;;;22.05;39.89;100123.31;5049098;28;20038;-72
2024/03/31 00:25:20;;;;;;;1.58;1.00;;;;;;;22.03;40.13;100131.44;4950693;28;20117;-71
2024/03/31 00:27:46;;;;;;;1.30;0.95;;;;;;;22.02;40.10;100132.47;4952028;28;20059;-72
2024/03/31 00:30:12;;;;;;;1.60;1.00;;;;;;;21.99;39.70;100130.25;4956094;28;20133;-72
2024/03/31 00:32:37;;;;;;;1.60;1.10;;;;;;;21.96;39.81;100142.09;4954057;28;20860;-72
2024/03/31 00:35:03;;;;;;;1.40;1.10;;;;;;;21.97;39.68;100127.81;4951134;28;20034;-72
2024/03/31 00:37:29;;;;;;;1.83;1.40;;;;;;;21.99;39.91;100130.25;5046485;28;20085;-72
2024/03/31 00:39:54;;;;;;;2.45;1.17;;;;;;;21.94;39.81;100128.25;4950943;28;20464;-72
2024/03/31 00:42:20;;;;;;;1.10;1.00;;;;;;;21.95;40.13;100131.72;5046021;28;20050;-72
2024/03/31 00:44:46;;;;;;;1.20;0.90;;;;;;;21.95;40.18;100129.06;4951894;28;20456;-72
2024/03/31 00:47:11;;;;;;;1.42;1.10;;;;;;;21.92;39.94;100124.19;4940551;28;20047;-72
2024/03/31 00:49:37;;;;;;;1.63;1.13;;;;;;;21.91;39.75;100127.84;4949037;28;20030;-72
2024/03/31 00:52:03;;;;;;;1.60;1.02;;;;;;;21.91;40.12;100128.66;4943267;28;20062;-72
2024/03/31 00:54:31;;;;;;;1.88;1.00;;;;;;;21.91;40.21;100122.56;4945443;28;20039;-72
2024/03/31 00:56:57;;;;;;;1.30;1.10;;;;;;;21.90;39.83;100118.25;5045050;28;20088;-72
2024/03/31 00:59:22;;;;;;;1.60;1.17;;;;;;;21.84;40.16;100105.84;5046103;28;20038;-72
2024/03/31 01:01:48;;;;;;;1.90;1.00;;;;;;;21.84;40.08;100095.25;4952331;28;20056;-72
2024/03/31 01:04:13;;;;;;;1.33;1.00;;;;;;;21.87;39.90;100106.22;4957730;28;20058;-72
2024/03/31 01:06:42;;;;;;;1.85;1.05;;;;;;;21.86;39.72;100101.97;4947386;28;20094;-72
2024/03/31 01:09:08;;;;;;;1.58;1.20;;;;;;;21.85;40.22;100102.97;4968823;28;20110;-72
2024/03/31 01:11:35;;;;;;;1.90;1.13;;;;;;;21.85;39.75;100092.38;5043382;28;20031;-72
2024/03/31 01:14:03;;;;;;;1.25;1.00;;;;;;;21.85;39.93;100088.91;4951777;28;20062;-72
2024/03/31 01:16:29;;;;;;;1.45;1.20;;;;;;;21.82;40.01;100084.84;4956727;28;20100;-72
2024/03/31 01:18:54;;;;;;;1.48;0.90;;;;;;;21.82;39.89;100076.91;4964204;28;20043;-72
2024/03/31 01:21:22;;;;;;;2.10;1.27;;;;;;;21.80;39.81;100072.84;4953131;28;20040;-72
2024/03/31 01:23:52;;;;;;;2.10;1.20;;;;;;;21.81;39.64;100066.50;5046552;28;20145;-72
2024/03/31 01:26:18;;;;;;;2.13;1.20;;;;;;;21.80;39.93;100057.75;5048808;28;20043;-72
2024/03/31 01:28:43;;;;;;;2.10;1.25;;;;;;;21.79;39.72;100052.66;4955581;28;20410;-72
2024/03/31 01:31:09;;;;;;;2.90;1.15;;;;;;;21.78;39.79;100043.91;4962355;28;20070;-73
2024/03/31 01:33:34;;;;;;;2.13;1.10;;;;;;;21.76;40.05;100047.78;4929215;28;20051;-73
2024/03/31 01:36:01;;;;;;;1.67;1.13;;;;;;;21.73;39.94;100043.72;4953400;28;20049;-73
2024/03/31 01:38:26;;;;;;;1.20;1.08;;;;;;;21.74;39.69;100047.19;4959003;28;20086;-73
2024/03/31 01:40:52;;;;;;;2.05;1.38;;;;;;;21.71;40.12;100054.50;4966330;28;20481;-71
2024/03/31 01:43:18;;;;;;;2.50;1.40;;;;;;;21.75;39.67;100060.22;4945966;28;20047;-74
2024/03/31 01:45:43;;;;;;;1.65;1.00;;;;;;;21.76;39.90;100076.94;4949145;28;20089;-73
2024/03/31 01:48:09;;;;;;;1.48;1.02;;;;;;;21.73;39.89;100077.38;4936152;28;20046;-73
2024/03/31 01:50:35;;;;;;;2.80;1.48;;;;;;;21.69;39.95;100064.50;5050710;28;20044;-73
2024/03/31 01:53:00;;;;;;;1.63;1.20;;;;;;;21.69;39.88;100066.34;4957376;28;20395;-72
2024/03/31 01:55:26;;;;;;;2.35;1.20;;;;;;;21.70;39.80;100067.97;4950464;28;20130;-73
2024/03/31 01:57:51;;;;;;;2.03;1.17;;;;;;;21.69;39.99;100075.13;5049224;28;20176;-74
2024/03/31 02:00:17;;;;;;;1.48;1.20;;;;;;;21.65;39.82;100081.06;5043992;28;20046;-73
2024/03/31 02:02:45;;;;;;;1.73;1.13;;;;;;;21.65;40.04;100095.09;4948230;28;20038;-74
2024/03/31 02:05:10;;;;;;;2.78;1.30;;;;;;;21.67;40.21;100095.72;4938915;28;20378;-72
2024/03/31 02:07:36;;;;;;;2.13;1.27;;;;;;;21.64;39.77;100101.44;5031469;28;20050;-73
2024/03/31 02:10:01;;;;;;;2.00;1.33;;;;;;;21.63;40.04;100101.66;4959865;28;20463;-74
2024/03/31 02:12:27;;;;;;;2.47;1.45;;;;;;;21.62;39.73;100116.72;4947018;28;20047;-73
2024/03/31 02:14:53;;;;;;;2.47;1.23;;;;;;;21.62;40.08;100129.97;4940030;28;20055;-73
2024/03/31 02:17:19;;;;;;;2.08;1.17;;;;;;;21.61;40.05;100140.78;4950225;28;20054;-72
2024/03/31 02:19:44;;;;;;;1.65;1.20;;;;;;;21.59;40.08;100142.81;4949031;28;20047;-73
2024/03/31 02:22:10;;;;;;;2.17;1.30;;;;;;;21.57;40.14;100135.09;4954122;28;20051;-72
2024/03/31 02:24:35;;;;;;;2.35;1.42;;;;;;;21.59;39.69;100143.66;5028160;28;20034;-72
2024/03/31 02:27:01;;;;;;;1.88;1.17;;;;;;;21.59;40.13;100137.53;4968509;28;20092;-73
2024/03/31 02:29:26;;;;;;;2.10;1.38;;;;;;;21.59;40.01;100137.53;4966525;28;20142;-73
2024/03/31 02:31:52;;;;;;;1.52;1.20;;;;;;;21.55;39.88;100131.03;4973151;28;20046;-73
2024/03/31 02:34:20;;;;;;;1.88;1.38;;;;;;;21.56;40.06;100127.34;4961106;28;20081;-73
2024/03/31 02:36:48;;;;;;;2.28;1.30;;;;;;;21.55;39.99;100115.13;4950630;28;20035;-73
2024/03/31 02:39:15;;;;;;;2.35;1.40;;;;;;;21.56;39.87;100125.53;4954640;28;20038;-72
2024/03/31 02:41:40;;;;;;;1.70;1.25;;;;;;;21.54;39.96;100126.72;5066593;28;20051;-71
2024/03/31 02:44:06;;;;;;;2.72;1.13;;;;;;;21.55;39.99;100125.72;4939965;28;20043;-72
2024/03/31 02:46:31;;;;;;;1.80;1.10;;;;;;;21.47;40.04;100110.03;4935507;28;20043;-73
2024/03/31 02:48:58;;;;;;;1.98;1.20;;;;;;;21.46;39.78;100109.22;4966561;28;20057;-73
2024/03/31 02:51:23;;;;;;;2.10;1.52;;;;;;;21.53;40.02;100120.63;4938786;28;20043;-73
2024/03/31 02:53:49;;;;;;;1.70;1.23;;;;;;;21.49;40.06;100108.81;4929468;28;20625;-72
2024/03/31 02:56:14;;;;;;;2.33;1.65;;;;;;;21.50;40.02;100099.03;4939959;28;20031;-73
2024/03/31 02:58:40;;;;;;;3.58;1.55;;;;;;;21.47;39.77;100099.44;5042319;28;20138;-73
2024/03/31 03:01:07;;;;;;;2.15;1.20;;;;;;;21.42;40.07;100092.94;4941690;28;20069;-73
2024/03/31 03:03:33;;;;;;;1.83;1.30;;;;;;;21.41;39.96;100095.81;4944374;28;20457;-72
2024/03/31 03:06:00;;;;;;;2.80;1.45;;;;;;;21.47;39.82;100094.16;4967133;28;20035;-73
2024/03/31 03:08:25;;;;;;;2.10;1.40;;;;;;;21.47;39.87;100092.31;4939684;28;20050;-73
2024/03/31 03:10:55;;;;;;;1.80;1.60;;;;;;;21.44;39.71;100092.72;5045344;28;20059;-73
2024/03/31 03:13:21;;;;;;;1.85;1.40;;;;;;;21.42;39.91;100100.88;4938169;28;20118;-73
2024/03/31 03:15:49;;;;;;;1.80;1.20;;;;;;;21.44;40.09;100110.47;5028397;28;20162;-73
2024/03/31 03:18:20;;;;;;;2.17;1.40;;;;;;;21.44;39.95;100129.00;4942660;28;20590;-72
2024/03/31 03:20:55;;;;;;;1.80;1.15;;;;;;;21.39;40.17;100129.63;4944045;28;20430;-73
2024/03/31 03:23:21;;;;;;;2.08;1.30;;;;;;;21.41;40.08;100133.69;4949664;28;20047;-73
2024/03/31 03:25:56;;;;;;;3.95;1.38;;;;;;;21.41;40.02;100131.06;4938465;28;20058;-73
2024/03/31 03:28:22;;;;;;;3.10;1.42;;;;;;;21.33;40.05;100125.13;4959716;28;20043;-73
2024/03/31 03:30:48;;;;;;;2.70;1.30;;;;;;;21.40;39.86;100132.06;5046408;28;20050;-73
2024/03/31 03:33:16;;;;;;;2.17;1.50;;;;;;;21.37;40.23;100134.31;4948479;28;20150;-73
2024/03/31 03:35:42;;;;;;;1.95;1.23;;;;;;;21.39;39.79;100138.38;4945590;28;20208;-73
2024/03/31 03:38:10;;;;;;;1.60;1.25;;;;;;;21.35;39.88;100144.28;5046804;28;20288;-73
2024/03/31 03:40:35;;;;;;;2.45;1.40;;;;;;;21.37;39.88;100140.44;4945068;28;20474;-73
2024/03/31 03:43:02;;;;;;;1.80;1.40;;;;;;;21.39;39.79;100145.53;4945134;28;20035;-72
2024/03/31 03:45:28;;;;;;;1.67;1.20;;;;;;;21.37;39.99;100158.16;5046410;28;20043;-72
2024/03/31 03:47:54;;;;;;;1.63;1.20;;;;;;;21.36;39.96;100157.34;4938900;28;20732;-71
2024/03/31 03:50:19;;;;;;;1.52;1.20;;;;;;;21.33;39.98;100146.31;4942749;28;20038;-71
2024/03/31 03:52:45;;;;;;;2.30;1.40;;;;;;;21.32;40.14;100140.22;5046888;28;20055;-71
2024/03/31 03:55:10;;;;;;;2.13;1.58;;;;;;;21.31;39.96;100127.19;4936540;28;20046;-72
2024/03/31 03:57:36;;;;;;;1.83;1.48;;;;;;;21.31;39.96;100129.84;4947691;28;20096;-72
2024/03/31 04:00:03;;;;;;;1.75;1.40;;;;;;;21.31;40.15;100133.28;4948113;28;20974;-72
2024/03/31 04:02:29;;;;;;;1.70;1.30;;;;;;;21.32;39.90;100142.88;4948086;28;20043;-72
2024/03/31 04:04:55;;;;;;;2.00;1.45;;;;;;;21.30;39.72;100131.66;4954853;28;20561;-72
2024/03/31 04:07:21;;;;;;;2.40;1.50;;;;;;;21.31;39.79;100133.28;4951404;28;20039;-72
2024/03/31 04:09:46;;;;;;;1.90;1.42;;;;;;;21.30;39.82;100138.78;4962008;28;20047;-72
2024/03/31 04:12:13;;;;;;;2.28;1.60;;;;;;;21.31;39.78;100135.13;5046981;28;20050;-72
2024/03/31 04:14:39;;;;;;;1.85;1.38;;;;;;;21.30;40.06;100142.25;4980856;28;20497;-72
2024/03/31 04:17:05;;;;;;;1.70;1.08;;;;;;;21.29;39.95;100139.81;4949180;28;20118;-72
2024/03/31 04:19:31;;;;;;;1.85;1.38;;;;;;;21.29;39.89;100130.03;4955905;28;20093;-72
2024/03/31 04:21:56;;;;;;;1.80;1.23;;;;;;;21.27;39.88;100128.63;5045381;28;20454;-73
2024/03/31 04:24:22;;;;;;;1.80;1.35;;;;;;;21.26;40.08;100141.03;5049478;28;20043;-72
2024/03/31 04:26:50;;;;;;;2.42;1.35;;;;;;;21.24;39.85;100136.94;4946478;28;20061;-72
2024/03/31 04:29:15;;;;;;;3.15;1.45;;;;;;;21.21;39.92;100137.38;4938531;28;20050;-72
2024/03/31 04:31:52;;;;;;;2.00;1.45;;;;;;;21.23;40.05;100143.25;4943897;28;20051;-72
2024/03/31 04:34:20;;;;;;;2.25;1.30;;;;;;;21.20;39.93;100141.03;4931180;28;20672;-72
2024/03/31 04:36:46;;;;;;;1.85;1.60;;;;;;;21.23;39.77;100148.56;4985351;28;20028;-72
2024/03/31 04:39:12;;;;;;;3.30;1.52;;;;;;;21.20;40.05;100136.56;4950032;28;20353;-72
2024/03/31 04:41:38;;;;;;;2.00;1.65;;;;;;;21.22;40.12;100128.41;4964699;28;20371;-72
2024/03/31 04:44:03;;;;;;;3.03;1.55;;;;;;;21.20;39.91;100131.25;4949691;28;20043;-72
2024/03/31 04:46:29;;;;;;;2.15;1.38;;;;;;;21.17;39.92;100129.00;5045708;28;20035;-72
2024/03/31 04:48:55;;;;;;;2.17;1.30;;;;;;;21.20;40.05;100125.97;5028449;28;20454;-73
2024/03/31 04:51:20;;;;;;;1.63;1.20;;;;;;;21.17;40.17;100123.69;4948957;28;20095;-72
2024/03/31 04:53:46;;;;;;;2.10;1.48;;;;;;;21.18;40.15;100130.63;4958229;28;20460;-72
2024/03/31 04:56:12;;;;;;;1.52;1.27;;;;;;;21.17;39.82;100133.47;4943217;28;20039;-72
2024/03/31 04:58:37;;;;;;;3.15;1.40;;;;;;;21.17;40.17;100138.78;4948213;28;20087;-72
2024/03/31 05:01:03;;;;;;;2.72;1.48;;;;;;;21.15;40.28;100143.47;4947507;28;20046;-72
2024/03/31 05:03:29;;;;;;;3.28;1.60;;;;;;;21.14;40.19;100137.34;4952300;28;20601;-71
2024/03/31 05:05:54;;;;;;;3.25;1.80;;;;;;;21.15;40.25;100143.47;4945664;28;20383;-73
2024/03/31 05:08:20;;;;;;;2.53;1.52;;;;;;;21.17;39.96;100138.78;4956926;28;20039;-71
2024/03/31 05:10:59;;;;;;;3.00;1.65;;;;;;;21.13;39.98;100130.44;4993290;28;20102;-72
2024/03/31 05:13:28;;;;;;;2.28;1.70;;;;;;;21.13;40.28;100139.19;4953930;28;20431;-72
2024/03/31 05:15:59;;;;;;;2.03;1.60;;;;;;;21.15;40.23;100136.34;4969160;28;20035;-72
2024/03/31 05:18:25;;;;;;;1.90;1.60;;;;;;;21.13;40.28;100133.06;4987284;28;20104;-73
2024/03/31 05:20:55;;;;;;;2.10;1.90;;;;;;;21.09;40.27;100122.09;4951575;28;20051;-73
2024/03/31 05:23:21;;;;;;;;;;;;;;;21.13;40.06;100128.59;4948992;28;20089;-72
2024/03/31 05:25:46;;;;;;;2.72;2.13;;;;;;;21.12;40.27;100121.66;5049857;28;20023;-73
2024/03/31 05:28:12;;;;;;;2.00;1.40;;;;;;;21.12;40.14;100115.56;4960904;28;20031;-71
2024/03/31 05:30:37;;;;;;;2.30;1.50;;;;;;;21.13;40.11;100109.25;4938576;28;20108;-72
2024/03/31 05:33:03;;;;;;;1.73;1.33;;;;;;;21.08;40.38;100112.53;4949104;28;20043;-72
2024/03/31 05:35:43;;;;;;;2.78;1.67;;;;;;;21.10;40.23;100110.47;4947168;28;20077;-72
2024/03/31 05:38:10;;;;;;;1.63;1.42;;;;;;;21.12;40.26;100110.28;4932571;28;20086;-72
2024/03/31 05:40:37;;;;;;;2.20;1.70;;;;;;;21.12;40.26;100118.22;4952421;28;20043;-72
2024/03/31 05:43:05;;;;;;;2.67;1.75;;;;;;;21.12;40.17;100118.22;5043934;28;20056;-72
2024/03/31 05:45:32;;;;;;;2.20;1.60;;;;;;;21.10;40.13;100123.72;4976016;28;20044;-72
2024/03/31 05:47:57;;;;;;;1.80;1.40;;;;;;;21.09;40.09;100116.78;4946123;28;20054;-72
2024/03/31 05:50:23;;;;;;;2.40;1.60;;;;;;;21.07;40.42;100118.03;4931997;28;20455;-72
2024/03/31 05:52:48;;;;;;;2.95;1.63;;;;;;;21.09;40.32;100121.28;4958076;28;20051;-73
2024/03/31 05:55:14;;;;;;;2.20;1.50;;;;;;;21.07;40.16;100115.38;5059276;28;20043;-71
2024/03/31 05:57:40;;;;;;;2.78;1.58;;;;;;;21.08;40.13;100124.94;4947462;28;20043;-72
2024/03/31 06:00:07;;;;;;;2.72;1.75;;;;;;;21.09;40.21;100127.38;4946863;28;20043;-72
2024/03/31 06:02:39;;;;;;;2.35;1.92;;;;;;;21.07;40.35;100132.06;4951673;28;20042;-72
2024/03/31 06:05:06;;;;;;;2.85;1.83;;;;;;;21.07;40.01;100134.72;5045655;28;20042;-72
2024/03/31 06:07:31;;;;;;;1.67;1.20;;;;;;;21.05;40.17;100136.75;4954271;28;20068;-72
2024/03/31 06:09:58;;;;;;;2.08;1.60;;;;;;;21.06;40.36;100142.88;5036690;28;20507;-72
2024/03/31 06:12:25;;;;;;;1.98;1.52;;;;;;;21.05;40.25;100141.25;4945283;28;20093;-72
2024/03/31 06:14:51;;;;;;;2.67;1.60;;;;;;;21.07;40.36;100137.38;4942825;28;20078;-72
2024/03/31 06:17:18;;;;;;;1.98;1.40;;;;;;;21.07;40.16;100128.59;4939793;28;20031;-72
2024/03/31 06:19:44;;;;;;;3.30;1.80;;;;;;;21.07;40.32;100133.91;4976047;28;20049;-73
2024/03/31 06:22:09;;;;;;;2.70;1.63;;;;;;;21.04;40.30;100127.19;4933283;28;20047;-72
2024/03/31 06:24:35;;;;;;;2.60;1.80;;;;;;;21.08;40.29;100131.06;4943912;28;20043;-72
2024/03/31 06:27:01;;;;;;;1.77;1.33;;;;;;;21.07;40.08;100134.72;4938896;28;20062;-72
2024/03/31 06:29:26;;;;;;;1.85;1.42;;;;;;;21.06;40.38;100135.75;4947169;28;20039;-72
2024/03/31 06:31:52;;;;;;;2.42;1.50;;;;;;;21.05;40.16;100128.81;4945575;28;20055;-72
2024/03/31 06:34:17;;;;;;;1.85;1.60;;;;;;;21.05;40.32;100136.75;5045676;28;20047;-72
2024/03/31 06:36:43;;;;;;;2.40;1.42;;;;;;;21.07;40.31;100128.59;4954863;28;20096;-72
2024/03/31 06:39:09;;;;;;;2.20;1.70;;;;;;;21.06;40.01;100116.41;4938347;28;20050;-72
2024/03/31 06:41:34;;;;;;;2.33;1.50;;;;;;;21.21;39.83;100118.81;4925524;28;20049;-73
2024/03/31 06:44:00;;;;;;;2.03;1.35;;;;;;;21.32;39.70;100113.72;4938865;28;20097;-72
2024/03/31 06:46:26;;;;;;;2.35;1.80;;;;;;;21.45;39.57;100110.25;4949573;28;20058;-71
2024/03/31 06:48:51;;;;;;;1.70;1.50;;;;;;;21.53;39.50;100114.50;4939647;28;20034;-73
2024/03/31 06:51:17;;;;;;;1.63;1.27;;;;;;;21.52;39.39;100123.47;4934791;28;20039;-73
2024/03/31 06:53:43;;;;;;;1.75;1.55;;;;;;;21.51;39.46;100129.78;4944127;28;20046;-72
2024/03/31 06:56:09;;;;;;;2.10;1.60;;;;;;;21.49;39.65;100127.34;4942313;28;20039;-72
2024/03/31 06:58:35;;;;;;;2.35;1.50;;;;;;;21.47;39.96;100132.03;4947619;28;20039;-73
2024/03/31 07:01:01;;;;;;;1.88;1.58;;;;;;;21.50;39.85;100138.75;4938059;28;20086;-73
2024/03/31 07:03:27;;;;;;;1.60;1.40;;;;;;;21.48;39.75;100131.03;4951135;28;20051;-72
2024/03/31 07:05:52;;;;;;;1.75;1.45;;;;;;;21.52;39.90;100134.06;4945592;28;20075;-73
2024/03/31 07:08:18;;;;;;;2.67;2.00;;;;;;;21.53;39.95;100130.38;4938251;28;20475;-73
2024/03/31 07:10:46;;;;;;;1.90;1.52;;;;;;;21.50;39.58;100126.31;4942719;28;20039;-72
2024/03/31 07:13:12;;;;;;;1.88;1.73;;;;;;;21.51;39.88;100132.44;5042784;28;20127;-73
2024/03/31 07:15:38;;;;;;;2.17;1.50;;;;;;;21.51;40.10;100137.75;4940142;28;20503;-73
2024/03/31 07:18:08;;;;;;;3.08;1.77;;;;;;;21.50;39.83;100138.75;4946422;28;20458;-73
2024/03/31 07:20:35;;;;;;;2.17;1.73;;;;;;;21.50;39.87;100128.16;4947479;28;20050;-72
2024/03/31 07:23:05;;;;;;;2.00;1.60;;;;;;;21.47;39.72;100116.16;4942089;28;20043;-72
2024/03/31 07:25:36;;;;;;;2.33;1.67;;;;;;;21.49;39.93;100121.25;4950119;28;20108;-73
2024/03/31 07:28:02;;;;;;;2.15;1.67;;;;;;;21.48;40.15;100114.31;4940705;28;20043;-72
2024/03/31 07:30:29;;;;;;;2.22;1.50;;;;;;;21.46;40.17;100117.19;5038196;28;20035;-72
2024/03/31 07:32:54;;;;;;;1.85;1.52;;;;;;;21.45;40.00;100110.25;4945754;28;20093;-73
2024/03/31 07:35:20;;;;;;;1.70;1.58;;;;;;;21.45;39.91;100112.09;5042112;28;20031;-72
2024/03/31 07:37:46;;;;;;;2.05;1.60;;;;;;;21.45;39.75;100104.94;4944683;28;20056;-71
2024/03/31 07:40:13;;;;;;;2.38;1.58;;;;;;;21.41;39.87;100109.03;4944105;28;20039;-72
2024/03/31 07:42:38;;;;;;;1.80;1.50;;;;;;;21.42;39.79;100113.31;4946787;28;20179;-72
2024/03/31 07:45:04;;;;;;;2.10;1.73;;;;;;;21.44;40.06;100113.91;4944815;28;20149;-73
2024/03/31 07:47:30;;;;;;;2.20;1.52;;;;;;;21.44;39.80;100110.47;4944837;28;20047;-73
2024/03/31 07:49:56;;;;;;;1.98;1.48;;;;;;;21.40;39.89;100115.38;4945867;28;20069;-74
2024/03/31 07:52:21;;;;;;;2.28;1.50;;;;;;;21.42;39.96;100111.47;4955011;28;20476;-72
2024/03/31 07:54:47;;;;;;;2.45;1.50;;;;;;;21.40;40.03;100112.72;4945250;28;20059;-73
2024/03/31 07:57:14;;;;;;;2.28;1.67;;;;;;;21.38;39.85;100112.13;4946215;28;20112;-73
2024/03/31 07:59:40;;;;;;;2.38;1.48;;;;;;;21.39;39.82;100105.78;4941957;28;20345;-71
2024/03/31 08:02:06;;;;;;;1.73;1.27;;;;;;;21.38;40.09;100110.28;4950973;28;20041;-74
2024/03/31 08:04:32;;;;;;;4.30;1.60;;;;;;;21.37;39.97;100103.34;4947611;28;20052;-75
2024/03/31 08:06:57;;;;;;;2.72;1.73;;;;;;;21.37;39.83;100108.66;4942601;28;20108;-74
2024/03/31 08:09:23;;;;;;;1.95;1.75;;;;;;;21.38;39.83;100109.47;5040597;28;20043;-74
2024/03/31 08:11:48;;;;;;;2.45;1.65;;;;;;;21.35;39.73;100104.56;4946449;28;20487;-74
2024/03/31 08:14:14;;;;;;;2.20;1.50;;;;;;;21.37;40.03;100108.66;4951208;28;20383;-76
2024/03/31 08:16:39;;;;;;;2.75;1.70;;;;;;;21.35;39.79;100104.56;4938593;28;20043;-77
2024/03/31 08:19:05;;;;;;;3.58;1.88;;;;;;;21.33;39.90;100094.16;4940893;28;20062;-76
2024/03/31 08:21:30;;;;;;;2.33;1.83;;;;;;;21.34;39.70;100089.69;4942550;28;20085;-76
2024/03/31 08:23:56;;;;;;;2.50;1.50;;;;;;;21.35;39.88;100089.47;4944278;28;20050;-76
2024/03/31 08:26:21;;;;;;;4.13;1.70;;;;;;;21.36;40.03;100098.22;4942392;28;20116;-74
2024/03/31 08:28:47;;;;;;;2.95;1.90;;;;;;;21.36;39.81;100090.28;4937043;28;20044;-76
2024/03/31 08:31:13;;;;;;;2.05;1.60;;;;;;;21.35;39.86;100089.47;4940416;28;20054;-76
2024/03/31 08:33:39;;;;;;;2.83;1.80;;;;;;;21.35;40.18;100086.84;4946179;28;20531;-77
2024/03/31 08:36:04;;;;;;;1.80;1.60;;;;;;;21.37;39.68;100084.81;4944611;28;20042;-76
2024/03/31 08:38:30;;;;;;;1.75;1.60;;;;;;;21.37;39.93;100081.34;4948385;28;20055;-76
2024/03/31 08:41:08;;;;;;;2.53;1.75;;;;;;;21.35;40.03;100096.63;5039686;28;20040;-75
2024/03/31 08:43:37;;;;;;;2.47;1.90;;;;;;;21.35;39.98;100088.66;4944517;28;20050;-75
2024/03/31 08:46:06;;;;;;;3.08;1.80;;;;;;;21.35;39.81;100083.38;4945452;28;20078;-76
2024/03/31 08:48:35;;;;;;;2.58;1.45;;;;;;;21.31;40.07;100077.69;4945500;28;20039;-75
2024/03/31 08:51:01;;;;;;;2.25;1.60;;;;;;;21.33;40.05;100074.81;4941086;28;20049;-76
2024/03/31 08:53:28;;;;;;;2.03;1.80;;;;;;;21.36;39.78;100083.19;4948668;28;20126;-76
2024/03/31 08:55:53;;;;;;;3.63;1.70;;;;;;;21.35;39.93;100084.19;4942928;28;20043;-75
2024/03/31 08:58:19;;;;;;;1.83;1.48;;;;;;;21.38;39.84;100096.22;4944891;28;20078;-75
2024/03/31 09:00:47;;;;;;;3.10;1.95;;;;;;;21.34;40.30;100090.50;4940923;28;20077;-74
2024/03/31 09:03:12;;;;;;;3.15;1.92;;;;;;;21.31;40.36;100079.50;4944805;28;20055;-75
2024/03/31 09:05:39;;;;;;;2.55;1.90;;;;;;;21.33;40.43;100080.94;4945434;28;20093;-75
2024/03/31 09:08:06;;;;;;;2.90;1.70;;;;;;;21.33;40.09;100074.81;4941624;28;20417;-75
2024/03/31 09:10:33;;;;;;;4.47;1.83;;;;;;;21.34;40.44;100074.63;4950591;28;20058;-74
2024/03/31 09:13:05;;;;;;;4.43;1.83;;;;;;;21.33;40.07;100062.38;4947130;28;20050;-75
2024/03/31 09:15:35;;;;;;;3.55;1.95;;;;;;;21.32;40.29;100059.97;4949077;28;20043;-75
2024/03/31 09:18:01;;;;;;;2.60;1.75;;;;;;;21.30;40.36;100049.56;5036259;28;20062;-75
2024/03/31 09:20:28;;;;;;;2.60;2.03;;;;;;;21.42;39.80;100047.91;4942621;28;20043;-75
2024/03/31 09:22:55;;;;;;;2.65;1.90;;;;;;;21.58;39.70;100056.44;4943054;28;20055;-75
2024/03/31 09:25:21;;;;;;;3.97;1.98;;;;;;;21.81;39.54;100056.72;4937539;28;20313;-74
2024/03/31 09:27:47;;;;;;;4.88;1.90;;;;;;;21.91;39.13;100051.78;4942948;28;20043;-74
2024/03/31 09:30:13;;;;;;;2.50;1.80;;;;;;;21.96;39.10;100051.97;4944844;28;20039;-74
2024/03/31 09:32:39;;;;;;;4.45;2.20;;;;;;;21.89;39.47;100045.88;4938436;28;20047;-75
2024/03/31 09:35:04;;;;;;;3.00;1.95;;;;;;;21.86;39.49;100050.78;4944459;28;20061;-74
2024/03/31 09:37:31;;;;;;;3.15;1.83;;;;;;;21.84;39.27;100063.44;4944589;28;20047;-75
2024/03/31 09:39:57;;;;;;;3.17;2.00;;;;;;;21.78;39.48;100049.19;4949233;28;20050;-73
2024/03/31 09:42:25;;;;;;;4.32;2.20;;;;;;;21.78;39.33;100049.19;4981997;28;20130;-75
2024/03/31 09:44:51;;;;;;;2.88;2.10;;;;;;;21.80;39.67;100057.75;4944953;28;20047;-75
2024/03/31 09:47:25;;;;;;;3.58;1.98;;;;;;;21.76;39.54;100048.59;4946551;28;20522;-74
2024/03/31 09:50:01;;;;;;;4.22;2.10;;;;;;;21.73;39.74;100043.72;4943567;28;20457;-75
2024/03/31 09:52:32;;;;;;;2.47;2.25;;;;;;;21.70;39.59;100037.00;4944140;28;20054;-75
2024/03/31 09:55:05;;;;;;;4.55;2.30;;;;;;;21.70;39.86;100037.00;4940793;28;20049;-75
2024/03/31 09:57:47;;;;;;;4.72;2.60;;;;;;;21.70;39.84;100037.00;4951699;28;20159;-74
2024/03/31 10:00:16;;;;;;;;;;;;;;;21.67;39.68;100026.00;4945709;28;20546;-76
2024/03/31 10:03:01;;;;;;;5.07;2.20;;;;;;;21.68;40.00;100015.19;4965885;28;20159;-74
2024/03/31 10:05:38;;;;;;;3.08;2.00;;;;;;;21.68;40.03;100009.09;4946376;28;20043;-75
2024/03/31 10:08:05;;;;;;;3.97;2.70;;;;;;;21.66;40.06;100003.19;4942344;28;20054;-75
2024/03/31 10:10:32;;;;;;;5.18;2.67;;;;;;;21.58;39.90;99993.66;4937774;28;20449;-75
2024/03/31 10:12:59;;;;;;;2.60;1.92;;;;;;;21.60;39.82;99998.75;4944788;28;20117;-74
2024/03/31 10:15:25;;;;;;;3.50;2.35;;;;;;;21.61;40.07;99997.72;4943441;28;20112;-74
2024/03/31 10:17:51;;;;;;;2.92;2.50;;;;;;;21.59;40.01;100000.56;4943623;28;20047;-74
2024/03/31 10:20:18;;;;;;;3.85;2.58;;;;;;;21.58;40.05;99996.31;4943806;28;20035;-75
2024/03/31 10:22:45;;;;;;;4.40;2.50;;;;;;;21.51;40.07;99998.16;4943919;28;20044;-75
2024/03/31 10:25:11;;;;;;;3.63;2.78;;;;;;;21.51;40.17;100000.81;4940662;28;22215;-75
2024/03/31 10:27:41;;;;;;;4.63;2.47;;;;;;;21.50;40.04;100012.44;4940442;28;20035;-75
2024/03/31 10:30:08;;;;;;;3.38;2.17;;;;;;;21.47;40.08;100006.75;4939009;28;20031;-74
2024/03/31 10:32:35;;;;;;;5.72;2.50;;;;;;;21.44;40.30;100013.28;4949006;28;20042;-75
2024/03/31 10:35:01;;;;;;;4.18;2.53;;;;;;;21.39;40.21;100005.97;4944451;28;20061;-74
2024/03/31 10:37:28;;;;;;;5.18;2.97;;;;;;;21.42;40.12;100013.47;4936656;28;20047;-76
2024/03/31 10:39:54;;;;;;;4.65;3.00;;;;;;;21.43;40.39;100019.59;4939932;28;20049;-75
2024/03/31 10:42:21;;;;;;;3.22;2.58;;;;;;;21.42;40.11;100028.56;4940017;28;20043;-75
2024/03/31 10:44:48;;;;;;;3.40;2.58;;;;;;;21.37;40.47;100025.75;4965751;28;20049;-75
2024/03/31 10:47:14;;;;;;;4.53;2.53;;;;;;;21.37;40.49;100021.25;4942133;28;20062;-75
2024/03/31 10:49:41;;;;;;;2.67;2.40;;;;;;;21.36;40.40;100024.94;4938930;28;20043;-75
2024/03/31 10:52:12;;;;;;;3.88;2.30;;;;;;;21.38;40.39;100011.47;4937198;28;20079;-75
2024/03/31 10:54:40;;;;;;;3.20;2.63;;;;;;;21.38;40.59;100007.00;4943744;28;20043;-74
2024/03/31 10:57:13;;;;;;;6.10;3.47;;;;;;;21.37;40.30;100002.72;4967708;28;20500;-75
2024/03/31 10:59:43;;;;;;;3.88;3.33;;;;;;;21.34;40.75;100003.09;5014032;28;20050;-74
2024/03/31 11:02:21;;;;;;;4.57;2.70;;;;;;;21.33;40.52;100000.66;4942576;28;20082;-74
2024/03/31 11:05:05;;;;;;;4.75;2.92;;;;;;;21.35;40.45;99998.63;4941884;28;20126;-74
2024/03/31 11:07:32;;;;;;;4.40;3.15;;;;;;;21.33;40.87;100004.13;4941108;28;20054;-74
2024/03/31 11:10:01;;;;;;;5.05;3.97;;;;;;;21.30;40.84;99999.25;4944709;28;20112;-74
2024/03/31 11:12:26;;;;;;;5.00;3.00;;;;;;;21.33;40.69;99996.19;4939849;28;20359;-74
2024/03/31 11:14:53;;;;;;;4.40;3.40;;;;;;;21.30;40.99;99998.44;4947375;28;20043;-74
2024/03/31 11:17:19;;;;;;;4.72;3.08;;;;;;;21.29;41.01;99999.47;4947416;28;20808;-75
2024/03/31 11:19:45;;;;;;;4.05;3.15;;;;;;;21.33;40.55;100003.31;4932975;28;20044;-75
2024/03/31 11:22:11;;;;;;;4.97;3.15;;;;;;;21.31;40.77;100006.19;4944681;28;20043;-74
2024/03/31 11:24:38;;;;;;;5.05;3.35;;;;;;;21.31;40.75;100006.19;4961279;28;20168;-74